sensor_id;sensor_type;location;lat;lon;timestamp;temperature;humidity
36856;DHT22;22788;51.434;6.786;2022-12-29T00:01:31;9.60;99.90
36856;DHT22;22788;51.434;6.786;2022-12-29T00:03:58;9.60;99.90
36856;DHT22;22788;51.434;6.786;2022-12-29T00:06:24;9.50;99.90
36856;DHT22;22788;51.434;6.786;2022-12-29T00:08:50;9.60;99.90
36856;DHT22;22788;51.434;6.786;2022-12-29T00:11:18;9.60;99.90
36856;DHT22;22788;51.434;6.786;2022-12-29T00:13:44;9.50;99.90
36856;DHT22;22788;51.434;6.786;2022-12-29T00:16:10;9.40;99.90
36856;DHT22;22788;51.434;6.786;2022-12-29T00:18:38;9.40;99.90
36856;DHT22;22788;51.434;6.786;2022-12-29T00:21:04;9.20;99.90
36856;DHT22;22788;51.434;6.786;2022-12-29T00:23:30;9.60;99.90
36856;DHT22;22788;51.434;6.786;2022-12-29T00:25:56;9.60;99.90
36856;DHT22;22788;51.434;6.786;2022-12-29T00:28:22;9.50;99.90
36856;DHT22;22788;51.434;6.786;2022-12-29T00:30:48;9.60;99.90
36856;DHT22;22788;51.434;6.786;2022-12-29T00:33:16;9.50;99.90
36856;DHT22;22788;51.434;6.786;2022-12-29T00:35:47;9.90;99.90
36856;DHT22;22788;51.434;6.786;2022-12-29T00:38:16;10.20;99.90
36856;DHT22;22788;51.434;6.786;2022-12-29T00:40:42;9.40;99.90
36856;DHT22;22788;51.434;6.786;2022-12-29T00:43:08;9.70;99.90
36856;DHT22;22788;51.434;6.786;2022-12-29T00:45:34;9.60;99.90
36856;DHT22;22788;51.434;6.786;2022-12-29T00:48:01;9.50;99.90
36856;DHT22;22788;51.434;6.786;2022-12-29T00:50:27;9.50;99.90
36856;DHT22;22788;51.434;6.786;2022-12-29T00:52:54;9.60;99.90
36856;DHT22;22788;51.434;6.786;2022-12-29T00:55:20;9.60;99.90
36856;DHT22;22788;51.434;6.786;2022-12-29T00:57:46;9.60;99.90
36856;DHT22;22788;51.434;6.786;2022-12-29T01:00:13;9.60;99.90
36856;DHT22;22788;51.434;6.786;2022-12-29T01:02:39;9.70;99.90
36856;DHT22;22788;51.434;6.786;2022-12-29T01:05:05;9.60;99.90
36856;DHT22;22788;51.434;6.786;2022-12-29T01:07:31;9.60;99.90
36856;DHT22;22788;51.434;6.786;2022-12-29T01:09:59;9.60;99.90
36856;DHT22;22788;51.434;6.786;2022-12-29T01:12:25;9.60;99.90
36856;DHT22;22788;51.434;6.786;2022-12-29T01:14:51;9.60;99.90
36856;DHT22;22788;51.434;6.786;2022-12-29T01:17:17;9.50;99.90
36856;DHT22;22788;51.434;6.786;2022-12-29T01:19:43;9.60;99.90
36856;DHT22;22788;51.434;6.786;2022-12-29T01:22:09;9.80;99.90
36856;DHT22;22788;51.434;6.786;2022-12-29T01:24:35;9.70;99.90
36856;DHT22;22788;51.434;6.786;2022-12-29T01:27:02;9.70;99.90
36856;DHT22;22788;51.434;6.786;2022-12-29T01:29:28;10.00;99.90
36856;DHT22;22788;51.434;6.786;2022-12-29T01:31:54;9.60;99.90
36856;DHT22;22788;51.434;6.786;2022-12-29T01:34:20;9.50;99.90
36856;DHT22;22788;51.434;6.786;2022-12-29T01:36:46;9.70;99.90
36856;DHT22;22788;51.434;6.786;2022-12-29T01:39:12;10.10;99.90
36856;DHT22;22788;51.434;6.786;2022-12-29T01:41:38;9.80;99.90
36856;DHT22;22788;51.434;6.786;2022-12-29T01:47:07;9.90;99.90
36856;DHT22;22788;51.434;6.786;2022-12-29T01:49:34;9.90;99.90
36856;DHT22;22788;51.434;6.786;2022-12-29T01:52:02;9.80;99.90
36856;DHT22;22788;51.434;6.786;2022-12-29T01:54:33;9.90;99.90
36856;DHT22;22788;51.434;6.786;2022-12-29T01:57:04;9.90;99.90
36856;DHT22;22788;51.434;6.786;2022-12-29T01:59:36;9.90;99.90
36856;DHT22;22788;51.434;6.786;2022-12-29T02:02:04;10.00;99.90
36856;DHT22;22788;51.434;6.786;2022-12-29T02:04:32;10.00;99.90
36856;DHT22;22788;51.434;6.786;2022-12-29T02:07:02;9.90;99.90
36856;DHT22;22788;51.434;6.786;2022-12-29T02:09:30;10.00;99.90
36856;DHT22;22788;51.434;6.786;2022-12-29T02:11:56;10.00;99.90
36856;DHT22;22788;51.434;6.786;2022-12-29T02:14:23;9.90;99.90
36856;DHT22;22788;51.434;6.786;2022-12-29T02:17:01;10.00;99.90
36856;DHT22;22788;51.434;6.786;2022-12-29T02:22:35;10.00;99.90
36856;DHT22;22788;51.434;6.786;2022-12-29T02:25:39;10.00;99.90
36856;DHT22;22788;51.434;6.786;2022-12-29T02:28:40;10.00;99.90
36856;DHT22;22788;51.434;6.786;2022-12-29T02:31:14;10.10;99.90
36856;DHT22;22788;51.434;6.786;2022-12-29T02:33:54;10.00;99.90
36856;DHT22;22788;51.434;6.786;2022-12-29T02:36:31;9.90;99.90
36856;DHT22;22788;51.434;6.786;2022-12-29T02:39:05;9.90;99.90
36856;DHT22;22788;51.434;6.786;2022-12-29T02:41:37;9.80;99.90
36856;DHT22;22788;51.434;6.786;2022-12-29T02:44:11;10.00;99.90
36856;DHT22;22788;51.434;6.786;2022-12-29T02:46:47;10.00;99.90
36856;DHT22;22788;51.434;6.786;2022-12-29T02:49:16;10.00;99.90
36856;DHT22;22788;51.434;6.786;2022-12-29T02:51:50;10.00;99.90
36856;DHT22;22788;51.434;6.786;2022-12-29T02:54:18;10.00;99.90
36856;DHT22;22788;51.434;6.786;2022-12-29T02:56:44;10.00;99.90
36856;DHT22;22788;51.434;6.786;2022-12-29T02:59:11;10.00;99.90
36856;DHT22;22788;51.434;6.786;2022-12-29T03:01:53;10.00;99.90
36856;DHT22;22788;51.434;6.786;2022-12-29T03:04:26;10.00;99.90
36856;DHT22;22788;51.434;6.786;2022-12-29T03:07:01;10.10;99.90
36856;DHT22;22788;51.434;6.786;2022-12-29T03:09:37;10.10;99.90
36856;DHT22;22788;51.434;6.786;2022-12-29T03:12:14;10.20;99.90
36856;DHT22;22788;51.434;6.786;2022-12-29T03:14:52;10.10;99.90
36856;DHT22;22788;51.434;6.786;2022-12-29T03:17:27;10.10;99.90
36856;DHT22;22788;51.434;6.786;2022-12-29T03:20:01;10.10;99.90
36856;DHT22;22788;51.434;6.786;2022-12-29T03:22:31;10.50;99.90
36856;DHT22;22788;51.434;6.786;2022-12-29T03:25:03;10.10;99.90
36856;DHT22;22788;51.434;6.786;2022-12-29T03:27:33;10.10;99.90
36856;DHT22;22788;51.434;6.786;2022-12-29T03:30:02;10.10;99.90
36856;DHT22;22788;51.434;6.786;2022-12-29T03:32:34;10.10;99.90
36856;DHT22;22788;51.434;6.786;2022-12-29T03:35:02;10.10;99.90
36856;DHT22;22788;51.434;6.786;2022-12-29T03:37:32;10.10;99.90
36856;DHT22;22788;51.434;6.786;2022-12-29T03:40:00;10.10;99.90
36856;DHT22;22788;51.434;6.786;2022-12-29T03:42:29;10.10;99.90
36856;DHT22;22788;51.434;6.786;2022-12-29T03:44:57;10.00;99.90
36856;DHT22;22788;51.434;6.786;2022-12-29T03:47:23;10.00;99.90
36856;DHT22;22788;51.434;6.786;2022-12-29T03:49:51;10.00;99.90
36856;DHT22;22788;51.434;6.786;2022-12-29T03:52:17;10.10;99.90
36856;DHT22;22788;51.434;6.786;2022-12-29T03:54:44;10.00;99.90
36856;DHT22;22788;51.434;6.786;2022-12-29T03:57:10;10.20;99.90
36856;DHT22;22788;51.434;6.786;2022-12-29T03:59:36;10.10;99.90
36856;DHT22;22788;51.434;6.786;2022-12-29T04:02:03;10.10;99.90
36856;DHT22;22788;51.434;6.786;2022-12-29T04:04:29;10.10;99.90
36856;DHT22;22788;51.434;6.786;2022-12-29T04:06:56;10.10;99.90
36856;DHT22;22788;51.434;6.786;2022-12-29T04:09:22;10.30;99.90
36856;DHT22;22788;51.434;6.786;2022-12-29T04:11:48;10.20;99.90
36856;DHT22;22788;51.434;6.786;2022-12-29T04:14:14;10.60;99.90
36856;DHT22;22788;51.434;6.786;2022-12-29T04:16:40;10.30;99.90
36856;DHT22;22788;51.434;6.786;2022-12-29T04:19:07;10.20;99.90
36856;DHT22;22788;51.434;6.786;2022-12-29T04:21:33;10.20;99.90
36856;DHT22;22788;51.434;6.786;2022-12-29T04:24:01;10.10;99.90
36856;DHT22;22788;51.434;6.786;2022-12-29T04:26:27;10.10;99.90
36856;DHT22;22788;51.434;6.786;2022-12-29T04:28:53;10.20;99.90
36856;DHT22;22788;51.434;6.786;2022-12-29T04:31:19;10.20;99.90
36856;DHT22;22788;51.434;6.786;2022-12-29T04:33:45;10.20;99.90
36856;DHT22;22788;51.434;6.786;2022-12-29T04:36:11;10.30;99.90
36856;DHT22;22788;51.434;6.786;2022-12-29T04:38:37;10.20;99.90
36856;DHT22;22788;51.434;6.786;2022-12-29T04:41:04;10.20;99.90
36856;DHT22;22788;51.434;6.786;2022-12-29T04:43:31;10.40;99.90
36856;DHT22;22788;51.434;6.786;2022-12-29T04:45:57;10.30;99.90
36856;DHT22;22788;51.434;6.786;2022-12-29T04:48:23;10.40;99.90
36856;DHT22;22788;51.434;6.786;2022-12-29T04:50:49;10.30;99.90
36856;DHT22;22788;51.434;6.786;2022-12-29T04:53:16;10.30;99.90
36856;DHT22;22788;51.434;6.786;2022-12-29T04:55:42;10.40;99.90
36856;DHT22;22788;51.434;6.786;2022-12-29T04:58:10;10.40;99.90
36856;DHT22;22788;51.434;6.786;2022-12-29T05:00:36;10.40;99.90
36856;DHT22;22788;51.434;6.786;2022-12-29T05:03:02;10.30;99.90
36856;DHT22;22788;51.434;6.786;2022-12-29T05:05:28;10.60;99.90
36856;DHT22;22788;51.434;6.786;2022-12-29T05:07:54;10.40;99.90
36856;DHT22;22788;51.434;6.786;2022-12-29T05:10:20;10.80;99.90
36856;DHT22;22788;51.434;6.786;2022-12-29T05:12:46;10.50;99.90
36856;DHT22;22788;51.434;6.786;2022-12-29T05:15:13;10.50;99.90
36856;DHT22;22788;51.434;6.786;2022-12-29T05:17:39;10.50;99.90
36856;DHT22;22788;51.434;6.786;2022-12-29T05:20:07;10.40;99.90
36856;DHT22;22788;51.434;6.786;2022-12-29T05:22:33;10.50;99.90
36856;DHT22;22788;51.434;6.786;2022-12-29T05:24:59;10.60;99.90
36856;DHT22;22788;51.434;6.786;2022-12-29T05:27:25;11.00;99.90
36856;DHT22;22788;51.434;6.786;2022-12-29T05:29:51;10.60;99.90
36856;DHT22;22788;51.434;6.786;2022-12-29T05:32:19;10.70;99.90
36856;DHT22;22788;51.434;6.786;2022-12-29T05:34:45;11.10;99.90
36856;DHT22;22788;51.434;6.786;2022-12-29T05:37:11;10.50;99.90
36856;DHT22;22788;51.434;6.786;2022-12-29T05:39:37;10.50;99.90
36856;DHT22;22788;51.434;6.786;2022-12-29T05:42:03;10.70;99.90
36856;DHT22;22788;51.434;6.786;2022-12-29T05:44:29;10.80;99.90
36856;DHT22;22788;51.434;6.786;2022-12-29T05:46:55;10.60;99.90
36856;DHT22;22788;51.434;6.786;2022-12-29T05:49:23;10.60;99.90
36856;DHT22;22788;51.434;6.786;2022-12-29T05:51:49;10.60;99.90
36856;DHT22;22788;51.434;6.786;2022-12-29T05:54:15;10.60;99.90
36856;DHT22;22788;51.434;6.786;2022-12-29T05:56:41;10.70;99.90
36856;DHT22;22788;51.434;6.786;2022-12-29T05:59:07;10.60;99.90
36856;DHT22;22788;51.434;6.786;2022-12-29T06:01:33;10.50;99.90
36856;DHT22;22788;51.434;6.786;2022-12-29T06:03:59;10.50;99.90
36856;DHT22;22788;51.434;6.786;2022-12-29T06:06:26;10.30;99.90
36856;DHT22;22788;51.434;6.786;2022-12-29T06:08:53;10.30;99.90
36856;DHT22;22788;51.434;6.786;2022-12-29T06:11:19;10.20;99.90
36856;DHT22;22788;51.434;6.786;2022-12-29T06:13:45;10.20;99.90
36856;DHT22;22788;51.434;6.786;2022-12-29T06:16:11;10.20;99.90
36856;DHT22;22788;51.434;6.786;2022-12-29T06:18:37;10.10;99.90
36856;DHT22;22788;51.434;6.786;2022-12-29T06:21:04;10.10;99.90
36856;DHT22;22788;51.434;6.786;2022-12-29T06:23:32;10.20;99.90
36856;DHT22;22788;51.434;6.786;2022-12-29T06:25:58;10.10;99.90
36856;DHT22;22788;51.434;6.786;2022-12-29T06:28:24;10.10;99.90
36856;DHT22;22788;51.434;6.786;2022-12-29T06:30:50;10.20;99.90
36856;DHT22;22788;51.434;6.786;2022-12-29T06:33:16;10.30;99.90
36856;DHT22;22788;51.434;6.786;2022-12-29T06:35:43;10.10;99.90
36856;DHT22;22788;51.434;6.786;2022-12-29T06:38:09;10.20;99.90
36856;DHT22;22788;51.434;6.786;2022-12-29T06:40:36;10.20;99.90
36856;DHT22;22788;51.434;6.786;2022-12-29T06:43:02;10.10;99.90
36856;DHT22;22788;51.434;6.786;2022-12-29T06:45:28;10.10;99.90
36856;DHT22;22788;51.434;6.786;2022-12-29T06:47:54;10.20;99.90
36856;DHT22;22788;51.434;6.786;2022-12-29T06:50:20;10.30;99.90
36856;DHT22;22788;51.434;6.786;2022-12-29T06:52:46;10.20;99.90
36856;DHT22;22788;51.434;6.786;2022-12-29T06:55:12;10.20;99.90
36856;DHT22;22788;51.434;6.786;2022-12-29T06:57:40;10.20;99.90
36856;DHT22;22788;51.434;6.786;2022-12-29T07:00:07;10.10;99.90
36856;DHT22;22788;51.434;6.786;2022-12-29T07:02:33;10.30;99.90
36856;DHT22;22788;51.434;6.786;2022-12-29T07:04:59;10.20;99.90
36856;DHT22;22788;51.434;6.786;2022-12-29T07:07:25;10.20;99.90
36856;DHT22;22788;51.434;6.786;2022-12-29T07:09:51;10.20;99.90
36856;DHT22;22788;51.434;6.786;2022-12-29T07:12:17;10.70;99.90
36856;DHT22;22788;51.434;6.786;2022-12-29T07:14:45;10.20;99.90
36856;DHT22;22788;51.434;6.786;2022-12-29T07:17:11;10.20;99.90
36856;DHT22;22788;51.434;6.786;2022-12-29T07:19:37;10.20;99.90
36856;DHT22;22788;51.434;6.786;2022-12-29T07:22:03;10.50;99.90
36856;DHT22;22788;51.434;6.786;2022-12-29T07:24:29;10.20;99.90
36856;DHT22;22788;51.434;6.786;2022-12-29T07:26:55;10.30;99.90
36856;DHT22;22788;51.434;6.786;2022-12-29T07:29:21;10.40;99.90
36856;DHT22;22788;51.434;6.786;2022-12-29T07:31:49;10.50;99.90
36856;DHT22;22788;51.434;6.786;2022-12-29T07:34:15;10.40;99.90
36856;DHT22;22788;51.434;6.786;2022-12-29T07:36:41;10.40;99.90
36856;DHT22;22788;51.434;6.786;2022-12-29T07:39:07;10.40;99.90
36856;DHT22;22788;51.434;6.786;2022-12-29T07:41:33;10.30;99.90
36856;DHT22;22788;51.434;6.786;2022-12-29T07:43:59;10.30;99.90
36856;DHT22;22788;51.434;6.786;2022-12-29T07:46:25;10.30;99.90
36856;DHT22;22788;51.434;6.786;2022-12-29T07:48:52;10.30;99.90
36856;DHT22;22788;51.434;6.786;2022-12-29T07:51:18;10.30;99.90
36856;DHT22;22788;51.434;6.786;2022-12-29T07:53:44;10.30;99.90
36856;DHT22;22788;51.434;6.786;2022-12-29T07:56:10;10.30;99.90
36856;DHT22;22788;51.434;6.786;2022-12-29T07:58:37;10.40;99.90
36856;DHT22;22788;51.434;6.786;2022-12-29T08:01:03;10.40;99.90
36856;DHT22;22788;51.434;6.786;2022-12-29T08:03:29;10.40;99.90
36856;DHT22;22788;51.434;6.786;2022-12-29T08:05:57;10.50;99.90
36856;DHT22;22788;51.434;6.786;2022-12-29T08:08:24;10.10;99.90
36856;DHT22;22788;51.434;6.786;2022-12-29T08:10:50;10.60;99.90
36856;DHT22;22788;51.434;6.786;2022-12-29T08:13:16;10.20;99.90
36856;DHT22;22788;51.434;6.786;2022-12-29T08:15:42;10.30;99.90
36856;DHT22;22788;51.434;6.786;2022-12-29T08:18:08;10.30;99.90
36856;DHT22;22788;51.434;6.786;2022-12-29T08:20:34;10.30;99.90
36856;DHT22;22788;51.434;6.786;2022-12-29T08:23:01;10.30;99.90
36856;DHT22;22788;51.434;6.786;2022-12-29T08:25:27;10.30;99.90
36856;DHT22;22788;51.434;6.786;2022-12-29T08:27:53;10.30;99.90
36856;DHT22;22788;51.434;6.786;2022-12-29T08:30:19;10.30;99.90
36856;DHT22;22788;51.434;6.786;2022-12-29T08:32:45;10.30;99.90
36856;DHT22;22788;51.434;6.786;2022-12-29T08:35:11;10.50;99.90
36856;DHT22;22788;51.434;6.786;2022-12-29T08:37:37;10.30;99.90
36856;DHT22;22788;51.434;6.786;2022-12-29T08:40:06;10.30;99.90
36856;DHT22;22788;51.434;6.786;2022-12-29T08:42:33;10.40;99.90
36856;DHT22;22788;51.434;6.786;2022-12-29T08:44:59;10.40;99.90
36856;DHT22;22788;51.434;6.786;2022-12-29T08:47:26;10.30;99.90
36856;DHT22;22788;51.434;6.786;2022-12-29T08:49:52;10.40;99.90
36856;DHT22;22788;51.434;6.786;2022-12-29T08:52:18;10.50;99.90
36856;DHT22;22788;51.434;6.786;2022-12-29T08:54:44;10.20;99.90
36856;DHT22;22788;51.434;6.786;2022-12-29T08:57:12;10.20;99.90
36856;DHT22;22788;51.434;6.786;2022-12-29T08:59:38;10.30;99.90
36856;DHT22;22788;51.434;6.786;2022-12-29T09:02:04;10.20;99.90
36856;DHT22;22788;51.434;6.786;2022-12-29T09:04:30;10.20;99.90
36856;DHT22;22788;51.434;6.786;2022-12-29T09:06:56;10.20;99.90
36856;DHT22;22788;51.434;6.786;2022-12-29T09:09:22;10.60;99.90
36856;DHT22;22788;51.434;6.786;2022-12-29T09:11:48;10.10;99.90
36856;DHT22;22788;51.434;6.786;2022-12-29T09:14:15;10.20;99.90
36856;DHT22;22788;51.434;6.786;2022-12-29T09:16:41;10.20;99.90
36856;DHT22;22788;51.434;6.786;2022-12-29T09:19:07;10.10;99.90
36856;DHT22;22788;51.434;6.786;2022-12-29T09:21:34;10.10;99.90
36856;DHT22;22788;51.434;6.786;2022-12-29T09:24:00;10.10;99.90
36856;DHT22;22788;51.434;6.786;2022-12-29T09:26:26;10.10;99.90
36856;DHT22;22788;51.434;6.786;2022-12-29T09:28:52;9.70;99.90
36856;DHT22;22788;51.434;6.786;2022-12-29T09:31:19;10.50;99.90
36856;DHT22;22788;51.434;6.786;2022-12-29T09:33:45;10.20;99.90
36856;DHT22;22788;51.434;6.786;2022-12-29T09:36:11;10.20;99.90
36856;DHT22;22788;51.434;6.786;2022-12-29T09:38:37;10.10;99.90
36856;DHT22;22788;51.434;6.786;2022-12-29T09:41:11;10.10;99.90
36856;DHT22;22788;51.434;6.786;2022-12-29T09:43:50;10.20;99.90
36856;DHT22;22788;51.434;6.786;2022-12-29T09:46:24;10.20;99.90
36856;DHT22;22788;51.434;6.786;2022-12-29T09:48:55;10.80;99.90
36856;DHT22;22788;51.434;6.786;2022-12-29T09:51:24;10.20;99.90
36856;DHT22;22788;51.434;6.786;2022-12-29T09:53:55;10.20;99.90
36856;DHT22;22788;51.434;6.786;2022-12-29T09:56:23;10.20;99.90
36856;DHT22;22788;51.434;6.786;2022-12-29T09:58:52;10.20;99.90
36856;DHT22;22788;51.434;6.786;2022-12-29T10:01:28;10.60;99.90
36856;DHT22;22788;51.434;6.786;2022-12-29T10:03:57;10.20;99.90
36856;DHT22;22788;51.434;6.786;2022-12-29T10:06:26;10.20;99.90
36856;DHT22;22788;51.434;6.786;2022-12-29T10:08:59;10.10;99.90
36856;DHT22;22788;51.434;6.786;2022-12-29T10:11:48;10.20;99.90
36856;DHT22;22788;51.434;6.786;2022-12-29T10:14:28;10.30;99.90
36856;DHT22;22788;51.434;6.786;2022-12-29T10:17:08;10.20;99.90
36856;DHT22;22788;51.434;6.786;2022-12-29T10:19:47;10.30;99.90
36856;DHT22;22788;51.434;6.786;2022-12-29T10:22:29;10.50;99.90
36856;DHT22;22788;51.434;6.786;2022-12-29T10:24:59;10.30;99.90
36856;DHT22;22788;51.434;6.786;2022-12-29T10:27:26;10.30;99.90
36856;DHT22;22788;51.434;6.786;2022-12-29T10:29:55;10.30;99.90
36856;DHT22;22788;51.434;6.786;2022-12-29T10:32:28;10.40;99.90
36856;DHT22;22788;51.434;6.786;2022-12-29T10:34:58;10.30;99.90
36856;DHT22;22788;51.434;6.786;2022-12-29T10:37:33;10.20;99.90
36856;DHT22;22788;51.434;6.786;2022-12-29T10:40:09;10.30;99.90
36856;DHT22;22788;51.434;6.786;2022-12-29T10:42:40;10.30;99.90
36856;DHT22;22788;51.434;6.786;2022-12-29T10:45:12;10.40;99.90
36856;DHT22;22788;51.434;6.786;2022-12-29T10:47:51;10.30;99.90
36856;DHT22;22788;51.434;6.786;2022-12-29T10:50:18;10.40;99.90
36856;DHT22;22788;51.434;6.786;2022-12-29T10:52:45;10.80;99.90
36856;DHT22;22788;51.434;6.786;2022-12-29T10:55:13;10.30;99.90
36856;DHT22;22788;51.434;6.786;2022-12-29T10:57:43;10.30;99.90
36856;DHT22;22788;51.434;6.786;2022-12-29T11:00:11;10.50;99.90
36856;DHT22;22788;51.434;6.786;2022-12-29T11:05:38;10.50;99.90
36856;DHT22;22788;51.434;6.786;2022-12-29T11:08:10;10.50;99.90
36856;DHT22;22788;51.434;6.786;2022-12-29T11:10:38;10.70;99.90
36856;DHT22;22788;51.434;6.786;2022-12-29T11:13:11;10.50;99.90
36856;DHT22;22788;51.434;6.786;2022-12-29T11:15:42;10.50;99.90
36856;DHT22;22788;51.434;6.786;2022-12-29T11:18:21;10.60;99.90
36856;DHT22;22788;51.434;6.786;2022-12-29T11:20:48;10.50;99.90
36856;DHT22;22788;51.434;6.786;2022-12-29T11:23:25;10.50;99.90
36856;DHT22;22788;51.434;6.786;2022-12-29T11:26:08;10.70;99.90
36856;DHT22;22788;51.434;6.786;2022-12-29T11:28:34;10.60;99.90
36856;DHT22;22788;51.434;6.786;2022-12-29T11:31:02;10.60;99.90
36856;DHT22;22788;51.434;6.786;2022-12-29T11:33:31;10.60;99.90
36856;DHT22;22788;51.434;6.786;2022-12-29T11:35:58;10.40;99.90
36856;DHT22;22788;51.434;6.786;2022-12-29T11:38:33;11.70;99.90
36856;DHT22;22788;51.434;6.786;2022-12-29T11:41:00;10.50;99.90
36856;DHT22;22788;51.434;6.786;2022-12-29T11:43:31;10.80;99.90
36856;DHT22;22788;51.434;6.786;2022-12-29T11:45:57;10.70;99.90
36856;DHT22;22788;51.434;6.786;2022-12-29T11:48:26;10.30;99.90
36856;DHT22;22788;51.434;6.786;2022-12-29T11:50:58;10.60;99.90
36856;DHT22;22788;51.434;6.786;2022-12-29T11:53:26;10.80;99.80
36856;DHT22;22788;51.434;6.786;2022-12-29T11:55:55;10.70;99.90
36856;DHT22;22788;51.434;6.786;2022-12-29T11:58:28;10.60;99.90
36856;DHT22;22788;51.434;6.786;2022-12-29T12:00:56;10.70;99.90
36856;DHT22;22788;51.434;6.786;2022-12-29T12:03:24;10.70;99.90
36856;DHT22;22788;51.434;6.786;2022-12-29T12:05:56;10.70;99.90
36856;DHT22;22788;51.434;6.786;2022-12-29T12:08:32;10.70;99.90
36856;DHT22;22788;51.434;6.786;2022-12-29T12:11:06;10.70;99.90
36856;DHT22;22788;51.434;6.786;2022-12-29T12:13:38;10.70;99.90
36856;DHT22;22788;51.434;6.786;2022-12-29T12:16:08;10.70;99.90
36856;DHT22;22788;51.434;6.786;2022-12-29T12:18:40;10.70;99.90
36856;DHT22;22788;51.434;6.786;2022-12-29T12:21:25;10.70;99.60
36856;DHT22;22788;51.434;6.786;2022-12-29T12:24:03;10.70;99.90
36856;DHT22;22788;51.434;6.786;2022-12-29T12:26:36;10.70;99.60
36856;DHT22;22788;51.434;6.786;2022-12-29T12:29:10;10.70;99.90
36856;DHT22;22788;51.434;6.786;2022-12-29T12:31:45;10.40;99.90
36856;DHT22;22788;51.434;6.786;2022-12-29T12:34:15;10.70;99.90
36856;DHT22;22788;51.434;6.786;2022-12-29T12:39:47;10.70;99.90
36856;DHT22;22788;51.434;6.786;2022-12-29T12:42:24;10.50;99.90
36856;DHT22;22788;51.434;6.786;2022-12-29T12:45:04;10.50;99.90
36856;DHT22;22788;51.434;6.786;2022-12-29T12:47:48;10.60;99.90
36856;DHT22;22788;51.434;6.786;2022-12-29T12:50:32;10.80;99.90
36856;DHT22;22788;51.434;6.786;2022-12-29T12:53:12;10.60;99.90
36856;DHT22;22788;51.434;6.786;2022-12-29T12:55:57;10.60;99.70
36856;DHT22;22788;51.434;6.786;2022-12-29T12:58:33;10.70;99.90
36856;DHT22;22788;51.434;6.786;2022-12-29T13:01:18;10.70;99.90
36856;DHT22;22788;51.434;6.786;2022-12-29T13:03:59;10.70;99.90
36856;DHT22;22788;51.434;6.786;2022-12-29T13:06:37;10.60;99.90
36856;DHT22;22788;51.434;6.786;2022-12-29T13:09:23;10.60;99.90
36856;DHT22;22788;51.434;6.786;2022-12-29T13:12:09;10.70;99.90
36856;DHT22;22788;51.434;6.786;2022-12-29T13:14:53;10.70;99.90
36856;DHT22;22788;51.434;6.786;2022-12-29T13:17:26;10.80;99.90
36856;DHT22;22788;51.434;6.786;2022-12-29T13:20:02;10.60;99.90
36856;DHT22;22788;51.434;6.786;2022-12-29T13:22:34;10.60;99.90
36856;DHT22;22788;51.434;6.786;2022-12-29T13:25:19;10.60;99.90
36856;DHT22;22788;51.434;6.786;2022-12-29T13:27:53;10.70;99.90
36856;DHT22;22788;51.434;6.786;2022-12-29T13:30:22;10.60;99.90
36856;DHT22;22788;51.434;6.786;2022-12-29T13:32:57;10.60;99.90
36856;DHT22;22788;51.434;6.786;2022-12-29T13:35:39;10.50;99.90
36856;DHT22;22788;51.434;6.786;2022-12-29T13:38:12;10.40;99.90
36856;DHT22;22788;51.434;6.786;2022-12-29T13:40:43;11.30;99.90
36856;DHT22;22788;51.434;6.786;2022-12-29T13:43:13;11.10;99.90
36856;DHT22;22788;51.434;6.786;2022-12-29T13:45:40;10.60;99.90
36856;DHT22;22788;51.434;6.786;2022-12-29T13:48:12;10.60;99.90
36856;DHT22;22788;51.434;6.786;2022-12-29T13:50:41;10.70;99.90
36856;DHT22;22788;51.434;6.786;2022-12-29T13:53:15;10.70;99.90
36856;DHT22;22788;51.434;6.786;2022-12-29T13:55:51;10.60;99.90
36856;DHT22;22788;51.434;6.786;2022-12-29T13:58:26;10.60;99.90
36856;DHT22;22788;51.434;6.786;2022-12-29T14:00:57;10.60;99.90
36856;DHT22;22788;51.434;6.786;2022-12-29T14:03:43;10.50;99.90
36856;DHT22;22788;51.434;6.786;2022-12-29T14:06:14;10.50;99.90
36856;DHT22;22788;51.434;6.786;2022-12-29T14:08:41;11.20;99.90
36856;DHT22;22788;51.434;6.786;2022-12-29T14:11:09;10.50;99.90
36856;DHT22;22788;51.434;6.786;2022-12-29T14:13:40;10.40;99.90
36856;DHT22;22788;51.434;6.786;2022-12-29T14:16:08;10.70;99.90
36856;DHT22;22788;51.434;6.786;2022-12-29T14:18:42;10.90;99.90
36856;DHT22;22788;51.434;6.786;2022-12-29T14:21:11;10.40;99.90
36856;DHT22;22788;51.434;6.786;2022-12-29T14:23:45;10.50;99.90
36856;DHT22;22788;51.434;6.786;2022-12-29T14:26:17;10.40;99.90
36856;DHT22;22788;51.434;6.786;2022-12-29T14:28:46;10.40;99.90
36856;DHT22;22788;51.434;6.786;2022-12-29T14:31:33;10.40;99.90
36856;DHT22;22788;51.434;6.786;2022-12-29T14:34:22;10.40;99.90
36856;DHT22;22788;51.434;6.786;2022-12-29T14:36:53;10.40;99.90
36856;DHT22;22788;51.434;6.786;2022-12-29T14:39:31;10.40;99.90
36856;DHT22;22788;51.434;6.786;2022-12-29T14:42:00;10.40;99.90
36856;DHT22;22788;51.434;6.786;2022-12-29T14:44:28;10.40;99.90
36856;DHT22;22788;51.434;6.786;2022-12-29T14:46:56;10.60;99.90
36856;DHT22;22788;51.434;6.786;2022-12-29T14:49:25;10.30;99.90
36856;DHT22;22788;51.434;6.786;2022-12-29T14:51:54;10.20;99.90
36856;DHT22;22788;51.434;6.786;2022-12-29T14:54:47;10.30;99.90
36856;DHT22;22788;51.434;6.786;2022-12-29T14:57:25;10.30;99.90
36856;DHT22;22788;51.434;6.786;2022-12-29T14:59:57;10.30;99.90
36856;DHT22;22788;51.434;6.786;2022-12-29T15:02:26;10.30;99.90
36856;DHT22;22788;51.434;6.786;2022-12-29T15:05:00;10.30;99.90
36856;DHT22;22788;51.434;6.786;2022-12-29T15:07:27;10.30;99.90
36856;DHT22;22788;51.434;6.786;2022-12-29T15:09:58;10.30;99.90
36856;DHT22;22788;51.434;6.786;2022-12-29T15:12:33;10.40;99.90
36856;DHT22;22788;51.434;6.786;2022-12-29T15:15:17;10.50;99.90
36856;DHT22;22788;51.434;6.786;2022-12-29T15:17:44;10.40;99.90
36856;DHT22;22788;51.434;6.786;2022-12-29T15:20:17;10.30;99.90
36856;DHT22;22788;51.434;6.786;2022-12-29T15:22:50;10.40;99.90
36856;DHT22;22788;51.434;6.786;2022-12-29T15:25:18;10.30;99.90
36856;DHT22;22788;51.434;6.786;2022-12-29T15:27:48;10.60;99.90
36856;DHT22;22788;51.434;6.786;2022-12-29T15:30:17;10.30;99.90
36856;DHT22;22788;51.434;6.786;2022-12-29T15:32:44;10.30;99.90
36856;DHT22;22788;51.434;6.786;2022-12-29T15:35:24;10.40;99.90
36856;DHT22;22788;51.434;6.786;2022-12-29T15:37:50;10.20;99.90
36856;DHT22;22788;51.434;6.786;2022-12-29T15:40:23;10.20;99.90
36856;DHT22;22788;51.434;6.786;2022-12-29T15:43:02;10.20;99.90
36856;DHT22;22788;51.434;6.786;2022-12-29T15:45:34;10.20;99.90
36856;DHT22;22788;51.434;6.786;2022-12-29T15:48:01;10.20;99.90
36856;DHT22;22788;51.434;6.786;2022-12-29T15:50:29;10.20;99.90
36856;DHT22;22788;51.434;6.786;2022-12-29T15:52:56;11.10;99.90
36856;DHT22;22788;51.434;6.786;2022-12-29T15:55:27;10.20;99.90
36856;DHT22;22788;51.434;6.786;2022-12-29T15:57:56;10.10;99.90
36856;DHT22;22788;51.434;6.786;2022-12-29T16:00:25;10.20;99.90